createdAt,value
2018-08-19T00:00:51.152Z,16.60
2018-08-19T00:03:20.543Z,16.60
2018-08-19T00:05:49.950Z,16.60
2018-08-19T00:08:19.393Z,16.60
2018-08-19T00:11:09.769Z,16.60
2018-08-19T00:13:40.144Z,16.50
2018-08-19T00:16:10.514Z,16.50
2018-08-19T00:18:39.746Z,16.50
2018-08-19T00:21:10.794Z,16.50
2018-08-19T00:23:45.303Z,16.40
2018-08-19T00:26:15.079Z,16.40
2018-08-19T00:28:44.409Z,16.40
2018-08-19T00:31:13.581Z,16.30
2018-08-19T00:33:42.717Z,16.30
2018-08-19T00:36:24.716Z,16.30
2018-08-19T00:38:55.214Z,16.30
2018-08-19T00:41:24.743Z,16.20
2018-08-19T00:43:54.251Z,16.20
2018-08-19T00:46:27.269Z,16.20
2018-08-19T00:48:56.946Z,16.20
2018-08-19T00:51:26.147Z,16.20
2018-08-19T00:53:55.491Z,16.20
2018-08-19T00:56:24.711Z,16.10
2018-08-19T00:58:53.786Z,16.10
2018-08-19T01:01:33.784Z,16.00
2018-08-19T01:04:03.458Z,16.00
2018-08-19T01:06:38.775Z,15.90
2018-08-19T01:09:09.239Z,15.90
2018-08-19T01:11:40.217Z,15.90
2018-08-19T01:14:13.099Z,15.90
2018-08-19T01:16:43.845Z,15.80
2018-08-19T01:19:14.014Z,15.80
2018-08-19T01:21:43.160Z,15.80
2018-08-19T01:24:12.701Z,15.70
2018-08-19T01:26:42.545Z,15.70
2018-08-19T01:29:12.143Z,15.70
2018-08-19T01:31:41.451Z,15.70
2018-08-19T01:34:13.354Z,15.60
2018-08-19T01:36:42.623Z,15.60
2018-08-19T01:39:13.103Z,15.60
2018-08-19T01:41:42.917Z,15.50
2018-08-19T01:44:15.016Z,15.50
2018-08-19T01:46:47.116Z,15.50
2018-08-19T01:49:16.480Z,15.50
2018-08-19T01:51:46.136Z,15.50
2018-08-19T01:54:21.409Z,15.50
2018-08-19T01:56:58.844Z,15.50
2018-08-19T01:59:30.209Z,15.40
2018-08-19T02:02:02.417Z,15.40
2018-08-19T02:04:32.636Z,15.40
2018-08-19T02:07:01.889Z,15.40
2018-08-19T02:09:30.913Z,15.40
2018-08-19T02:12:00.793Z,15.40
2018-08-19T02:14:30.116Z,15.30
2018-08-19T02:16:59.201Z,15.30
2018-08-19T02:19:28.182Z,15.30
2018-08-19T02:21:57.298Z,15.20
2018-08-19T02:24:26.437Z,15.20
2018-08-19T02:26:55.427Z,15.30
2018-08-19T02:29:34.345Z,15.20
2018-08-19T02:32:05.544Z,15.20
2018-08-19T02:34:35.951Z,15.20
2018-08-19T02:37:25.514Z,15.20
2018-08-19T02:39:54.877Z,15.10
2018-08-19T02:42:30.666Z,15.10
2018-08-19T02:45:05.568Z,15.10
2018-08-19T02:47:35.121Z,15.00
2018-08-19T02:50:05.289Z,15.00
2018-08-19T02:52:37.076Z,15.00
2018-08-19T02:55:07.840Z,15.00
2018-08-19T02:57:39.924Z,14.90
2018-08-19T03:00:11.060Z,14.90
2018-08-19T03:02:41.988Z,14.90
2018-08-19T03:05:13.084Z,14.90
2018-08-19T03:07:42.377Z,14.90
2018-08-19T03:10:14.205Z,14.90
2018-08-19T03:12:43.944Z,14.90
2018-08-19T03:15:15.100Z,14.80
2018-08-19T03:17:47.393Z,14.80
2018-08-19T03:20:16.638Z,14.80
2018-08-19T03:22:45.641Z,14.80
2018-08-19T03:25:14.759Z,14.80
2018-08-19T03:27:43.782Z,14.80
2018-08-19T03:30:15.137Z,14.80
2018-08-19T03:32:52.544Z,14.80
2018-08-19T03:35:22.857Z,14.80
2018-08-19T03:37:54.035Z,14.70
2018-08-19T03:40:26.069Z,14.70
2018-08-19T03:42:55.648Z,14.70
2018-08-19T03:45:24.754Z,14.70
2018-08-19T03:47:54.076Z,14.70
2018-08-19T03:50:24.939Z,14.70
2018-08-19T03:52:55.257Z,14.70
2018-08-19T03:55:26.380Z,14.70
2018-08-19T03:57:59.827Z,14.60
2018-08-19T04:00:31.463Z,14.60
2018-08-19T04:03:00.569Z,14.60
2018-08-19T04:05:42.107Z,14.60
2018-08-19T04:08:12.388Z,14.50
2018-08-19T04:10:43.320Z,14.50
2018-08-19T04:13:32.032Z,14.50
2018-08-19T04:16:02.796Z,14.50
2018-08-19T04:18:38.751Z,14.40
2018-08-19T04:21:10.501Z,14.50
2018-08-19T04:23:43.040Z,14.40
2018-08-19T04:26:12.288Z,14.40
2018-08-19T04:28:42.936Z,14.40
2018-08-19T04:31:17.867Z,14.40
2018-08-19T04:33:48.434Z,14.40
2018-08-19T04:36:20.461Z,14.50
2018-08-19T04:38:49.488Z,14.50
2018-08-19T04:41:18.793Z,14.50
2018-08-19T04:43:48.668Z,14.50
2018-08-19T04:46:17.656Z,14.60
2018-08-19T04:48:48.041Z,14.60
2018-08-19T04:51:17.182Z,14.60
2018-08-19T04:53:46.375Z,14.70
2018-08-19T04:56:15.663Z,14.70
2018-08-19T04:58:44.745Z,14.80
2018-08-19T05:01:13.992Z,14.80
2018-08-19T05:03:45.888Z,14.90
2018-08-19T05:06:14.943Z,14.90
2018-08-19T05:08:43.921Z,15.00
2018-08-19T05:11:12.922Z,15.10
2018-08-19T05:13:41.844Z,15.20
2018-08-19T05:16:11.863Z,15.30
2018-08-19T05:18:45.661Z,15.40
2018-08-19T05:21:15.109Z,15.40
2018-08-19T05:23:44.631Z,15.50
2018-08-19T05:26:14.408Z,15.60
2018-08-19T05:28:51.337Z,15.80
2018-08-19T05:31:20.814Z,15.80
2018-08-19T05:33:49.992Z,15.90
2018-08-19T05:36:20.243Z,16.00
2018-08-19T05:38:49.852Z,16.30
2018-08-19T05:41:18.965Z,17.00
2018-08-19T05:43:48.114Z,17.60
2018-08-19T05:46:17.568Z,18.10
2018-08-19T05:48:47.276Z,18.80
2018-08-19T05:51:16.580Z,19.90
2018-08-19T05:53:50.076Z,20.50
2018-08-19T05:56:20.069Z,21.20
2018-08-19T05:58:49.664Z,21.60
2018-08-19T06:01:24.003Z,22.00
2018-08-19T06:03:53.491Z,22.60
2018-08-19T06:06:22.528Z,23.00
2018-08-19T06:08:53.622Z,23.20
2018-08-19T06:11:23.068Z,23.60
2018-08-19T06:13:52.325Z,23.90
2018-08-19T06:16:22.437Z,24.30
2018-08-19T06:18:52.513Z,24.90
2018-08-19T06:21:21.902Z,25.40
2018-08-19T06:23:51.128Z,26.10
2018-08-19T06:26:25.552Z,26.30
2018-08-19T06:28:55.693Z,27.10
2018-08-19T06:31:25.429Z,27.40
2018-08-19T06:33:54.940Z,27.90
2018-08-19T06:36:24.394Z,28.10
2018-08-19T06:38:53.803Z,28.00
2018-08-19T06:41:23.444Z,28.40
2018-08-19T06:43:52.825Z,28.70
2018-08-19T06:46:23.373Z,29.30
2018-08-19T06:48:52.625Z,29.60
2018-08-19T06:51:21.673Z,29.10
2018-08-19T06:53:50.738Z,28.60
2018-08-19T06:56:21.034Z,28.60
2018-08-19T06:58:50.017Z,29.20
2018-08-19T07:01:19.330Z,29.20
2018-08-19T07:03:53.484Z,29.30
2018-08-19T07:06:22.882Z,29.80
2018-08-19T07:08:52.588Z,30.20
2018-08-19T07:11:22.042Z,31.10
2018-08-19T07:13:51.630Z,31.70
2018-08-19T07:16:22.084Z,32.10
2018-08-19T07:18:51.397Z,31.70
2018-08-19T07:21:20.718Z,31.60
2018-08-19T07:23:50.235Z,31.30
2018-08-19T07:26:19.553Z,31.80
2018-08-19T07:28:48.817Z,32.40
2018-08-19T07:31:18.248Z,32.40
2018-08-19T07:33:47.449Z,32.30
2018-08-19T07:36:16.644Z,32.50
2018-08-19T07:38:45.971Z,31.70
2018-08-19T07:41:15.377Z,31.50
2018-08-19T07:43:45.561Z,31.90
2018-08-19T07:46:14.666Z,32.10
2018-08-19T07:48:43.726Z,31.80
2018-08-19T07:51:12.980Z,31.70
2018-08-19T07:53:42.233Z,32.30
2018-08-19T07:56:11.369Z,32.90
2018-08-19T07:58:42.261Z,33.50
2018-08-19T08:01:11.433Z,32.50
2018-08-19T08:03:40.635Z,32.20
2018-08-19T08:06:09.735Z,32.10
2018-08-19T08:08:38.974Z,31.90
2018-08-19T08:11:08.186Z,32.40
2018-08-19T08:13:37.910Z,32.90
2018-08-19T08:16:07.174Z,33.10
2018-08-19T08:18:36.402Z,32.60
2018-08-19T08:21:12.943Z,31.00
2018-08-19T08:23:42.227Z,30.60
2018-08-19T08:26:11.533Z,29.50
2018-08-19T08:28:40.785Z,29.90
2018-08-19T08:31:10.041Z,29.80
2018-08-19T08:33:40.515Z,29.20
2018-08-19T08:36:10.676Z,28.90
2018-08-19T08:38:41.852Z,28.60
2018-08-19T08:41:12.559Z,28.20
2018-08-19T08:43:42.277Z,27.90
2018-08-19T08:46:11.598Z,27.70
2018-08-19T08:48:41.273Z,27.50
2018-08-19T08:51:11.361Z,27.40
2018-08-19T08:53:45.692Z,27.40
2018-08-19T08:56:15.564Z,28.20
2018-08-19T08:58:45.284Z,28.40
2018-08-19T09:01:15.571Z,28.50
2018-08-19T09:03:44.748Z,28.70
2018-08-19T09:06:19.793Z,27.90
2018-08-19T09:08:49.527Z,27.30
2018-08-19T09:11:19.145Z,26.60
2018-08-19T09:13:48.888Z,27.00
2018-08-19T09:16:18.347Z,28.50
2018-08-19T09:18:47.909Z,29.00
2018-08-19T09:21:17.065Z,29.20
2018-08-19T09:26:15.150Z,28.40
2018-08-19T09:28:44.868Z,27.50
2018-08-19T09:31:14.481Z,27.20
2018-08-19T09:33:43.980Z,27.20
2018-08-19T09:36:13.429Z,27.90
2018-08-19T09:38:43.177Z,28.60
2018-08-19T09:41:12.860Z,28.70
2018-08-19T09:43:42.141Z,29.00
2018-08-19T09:46:11.383Z,29.00
2018-08-19T09:48:40.655Z,28.70
2018-08-19T09:51:14.608Z,27.70
2018-08-19T09:53:44.686Z,27.50
2018-08-19T09:56:14.243Z,27.60
2018-08-19T09:58:48.111Z,27.60
2018-08-19T10:01:22.660Z,27.10
2018-08-19T10:03:51.788Z,27.10
2018-08-19T10:06:21.439Z,27.90
2018-08-19T10:08:50.513Z,28.80
2018-08-19T10:11:19.765Z,28.70
2018-08-19T10:13:53.434Z,28.60
2018-08-19T10:16:37.229Z,28.50
2018-08-19T10:19:06.641Z,28.70
2018-08-19T10:21:36.572Z,29.60
2018-08-19T10:24:19.224Z,30.00
2018-08-19T10:26:48.625Z,31.00
2018-08-19T10:29:18.373Z,31.60
2018-08-19T10:31:52.760Z,31.80
2018-08-19T10:34:31.565Z,31.60
2018-08-19T10:37:01.515Z,30.70
2018-08-19T10:39:30.708Z,31.20
2018-08-19T10:42:19.198Z,30.90
2018-08-19T10:44:50.081Z,31.40
2018-08-19T10:47:20.302Z,30.10
2018-08-19T10:49:59.782Z,30.00
2018-08-19T10:52:30.617Z,29.70
2018-08-19T10:55:01.035Z,29.70
2018-08-19T10:57:30.653Z,30.30
2018-08-19T10:59:59.972Z,30.10
2018-08-19T11:02:29.248Z,29.90
2018-08-19T11:05:00.298Z,29.70
2018-08-19T11:07:29.347Z,30.00
2018-08-19T11:10:14.960Z,30.00
2018-08-19T11:12:44.056Z,30.00
2018-08-19T11:15:27.244Z,29.50
2018-08-19T11:17:56.749Z,29.90
2018-08-19T11:20:31.001Z,30.20
2018-08-19T11:23:06.061Z,30.10
2018-08-19T11:25:35.731Z,30.50
2018-08-19T11:28:16.716Z,30.50
2018-08-19T11:30:46.246Z,30.20
2018-08-19T11:33:25.420Z,30.30
2018-08-19T11:35:54.633Z,29.80
2018-08-19T11:38:24.089Z,29.00
2018-08-19T11:40:53.532Z,28.90
2018-08-19T11:43:22.936Z,28.90
2018-08-19T11:45:52.451Z,29.00
2018-08-19T11:48:21.812Z,29.50
2018-08-19T11:50:51.094Z,29.40
2018-08-19T11:53:20.275Z,29.30
2018-08-19T11:55:49.590Z,28.60
2018-08-19T11:58:33.478Z,28.40
2018-08-19T12:01:04.158Z,28.40
2018-08-19T12:03:53.752Z,28.10
2018-08-19T12:06:29.282Z,27.90
2018-08-19T12:08:59.807Z,28.10
2018-08-19T12:11:32.385Z,28.20
2018-08-19T12:14:07.406Z,28.20
2018-08-19T12:16:44.991Z,27.90
2018-08-19T12:19:19.478Z,27.90
2018-08-19T12:21:54.979Z,28.00
2018-08-19T12:24:25.925Z,27.90
2018-08-19T12:26:56.661Z,28.00
2018-08-19T12:29:28.426Z,27.90
2018-08-19T12:32:05.026Z,27.90
2018-08-19T12:34:34.623Z,27.70
2018-08-19T12:37:03.913Z,27.70
2018-08-19T12:39:32.994Z,27.60
2018-08-19T12:42:02.997Z,27.90
2018-08-19T12:44:31.984Z,27.90
2018-08-19T12:47:16.761Z,27.80
2018-08-19T12:49:48.844Z,27.70
2018-08-19T12:52:20.244Z,27.60
2018-08-19T12:54:51.885Z,27.80
2018-08-19T12:57:21.220Z,27.90
2018-08-19T12:59:50.441Z,28.10
2018-08-19T13:02:23.988Z,27.90
2018-08-19T13:04:53.182Z,28.10
2018-08-19T13:07:22.443Z,28.00
2018-08-19T13:09:51.552Z,28.10
2018-08-19T13:12:20.682Z,27.80
2018-08-19T13:14:50.026Z,27.80
2018-08-19T13:17:20.088Z,28.10
2018-08-19T13:19:55.704Z,28.20
2018-08-19T13:22:25.077Z,28.20
2018-08-19T13:24:54.145Z,28.00
2018-08-19T13:27:23.192Z,27.90
2018-08-19T13:29:52.267Z,28.00
2018-08-19T13:32:22.088Z,28.20
2018-08-19T13:34:51.344Z,28.30
2018-08-19T13:37:22.132Z,28.30
2018-08-19T13:39:51.475Z,28.10
2018-08-19T13:42:20.953Z,28.20
2018-08-19T13:44:50.418Z,28.20
2018-08-19T13:47:19.790Z,28.30
2018-08-19T13:49:49.721Z,28.30
2018-08-19T13:52:19.191Z,28.20
2018-08-19T13:55:01.239Z,28.00
2018-08-19T13:57:30.519Z,28.00
2018-08-19T14:00:00.031Z,28.00
2018-08-19T14:02:29.222Z,28.00
2018-08-19T14:04:58.602Z,27.90
2018-08-19T14:07:27.737Z,27.90
2018-08-19T14:09:56.942Z,28.00
2018-08-19T14:12:26.187Z,27.80
2018-08-19T14:14:55.302Z,27.70
2018-08-19T14:17:24.604Z,27.70
2018-08-19T14:19:53.870Z,27.70
2018-08-19T14:22:23.102Z,27.70
2018-08-19T14:24:52.327Z,27.70
2018-08-19T14:27:21.570Z,27.70
2018-08-19T14:29:50.988Z,27.60
2018-08-19T14:32:31.460Z,27.50
2018-08-19T14:35:02.385Z,27.50
2018-08-19T14:37:31.620Z,27.50
2018-08-19T14:40:01.688Z,27.50
2018-08-19T14:42:31.071Z,27.40
2018-08-19T14:45:00.784Z,27.40
2018-08-19T14:47:30.141Z,27.30
2018-08-19T14:49:59.974Z,27.40
2018-08-19T14:52:29.670Z,27.30
2018-08-19T14:54:59.241Z,27.40
2018-08-19T14:57:28.765Z,27.30
2018-08-19T14:59:58.263Z,27.30
2018-08-19T15:02:27.570Z,27.20
2018-08-19T15:04:56.957Z,27.20
2018-08-19T15:07:26.529Z,27.20
2018-08-19T15:09:56.056Z,27.20
2018-08-19T15:12:26.468Z,27.10
2018-08-19T15:14:59.813Z,27.20
2018-08-19T15:17:28.956Z,27.20
2018-08-19T15:19:58.348Z,27.20
2018-08-19T15:22:27.570Z,27.20
2018-08-19T15:24:56.849Z,27.20
2018-08-19T15:27:26.034Z,27.10
2018-08-19T15:29:55.333Z,27.10
2018-08-19T15:32:25.249Z,27.10
2018-08-19T15:34:54.698Z,27.10
2018-08-19T15:37:23.928Z,27.00
2018-08-19T15:39:53.090Z,27.00
2018-08-19T15:42:22.337Z,27.00
2018-08-19T15:44:51.509Z,27.00
2018-08-19T15:47:20.946Z,26.90
2018-08-19T15:50:00.496Z,26.80
2018-08-19T15:52:29.893Z,26.90
2018-08-19T15:55:01.025Z,26.90
2018-08-19T15:57:30.619Z,26.90
2018-08-19T16:00:01.364Z,26.80
2018-08-19T16:02:30.644Z,26.80
2018-08-19T16:05:02.709Z,26.80
2018-08-19T16:07:32.380Z,26.70
2018-08-19T16:10:01.754Z,26.70
2018-08-19T16:12:31.315Z,26.60
2018-08-19T16:15:00.733Z,26.60
2018-08-19T16:17:29.959Z,26.50
2018-08-19T16:19:59.148Z,26.50
2018-08-19T16:22:28.478Z,26.40
2018-08-19T16:24:58.105Z,26.40
2018-08-19T16:27:27.282Z,26.40
2018-08-19T16:29:56.490Z,26.40
2018-08-19T16:32:26.121Z,26.30
2018-08-19T16:34:56.000Z,26.30
2018-08-19T16:37:25.747Z,26.20
2018-08-19T16:39:54.990Z,26.10
2018-08-19T16:42:25.719Z,26.00
2018-08-19T16:44:55.462Z,26.00
2018-08-19T16:47:25.001Z,25.90
2018-08-19T16:49:54.264Z,25.80
2018-08-19T16:52:23.626Z,25.70
2018-08-19T16:54:53.012Z,25.70
2018-08-19T16:57:22.601Z,25.60
2018-08-19T16:59:52.180Z,25.60
2018-08-19T17:02:21.760Z,25.60
2018-08-19T17:04:51.220Z,25.50
2018-08-19T17:07:21.642Z,25.50
2018-08-19T17:09:51.030Z,25.40
2018-08-19T17:12:20.081Z,25.40
2018-08-19T17:14:49.299Z,25.30
2018-08-19T17:17:18.501Z,25.30
2018-08-19T17:19:47.848Z,25.20
2018-08-19T17:22:16.898Z,25.20
2018-08-19T17:24:46.747Z,25.10
2018-08-19T17:27:16.397Z,25.10
2018-08-19T17:29:45.638Z,25.00
2018-08-19T17:32:17.320Z,24.90
2018-08-19T17:34:47.334Z,24.90
2018-08-19T17:37:16.784Z,24.90
2018-08-19T17:39:46.281Z,24.80
2018-08-19T17:42:15.732Z,24.80
2018-08-19T17:44:45.564Z,24.70
2018-08-19T17:47:15.029Z,24.70
2018-08-19T17:49:44.342Z,24.60
2018-08-19T17:52:13.951Z,24.50
2018-08-19T17:54:43.194Z,24.50
2018-08-19T17:57:13.337Z,24.40
2018-08-19T17:59:42.571Z,24.30
2018-08-19T18:02:11.697Z,24.30
2018-08-19T18:04:47.636Z,24.20
2018-08-19T18:07:22.917Z,24.20
2018-08-19T18:09:58.704Z,24.10
2018-08-19T18:12:28.300Z,24.10
2018-08-19T18:14:58.562Z,24.00
2018-08-19T18:17:27.586Z,23.90
2018-08-19T18:19:56.757Z,23.90
2018-08-19T18:22:26.252Z,23.70
2018-08-19T18:25:02.711Z,23.70
2018-08-19T18:27:32.328Z,23.70
2018-08-19T18:30:01.589Z,23.60
2018-08-19T18:32:30.681Z,23.50
2018-08-19T18:34:59.884Z,23.40
2018-08-19T18:37:28.934Z,23.30
2018-08-19T18:39:58.026Z,23.20
2018-08-19T18:42:38.155Z,23.20
2018-08-19T18:45:08.680Z,23.10
2018-08-19T18:47:51.007Z,23.10
2018-08-19T18:50:23.201Z,23.00
2018-08-19T18:52:52.825Z,22.90
2018-08-19T18:55:22.585Z,22.80
2018-08-19T18:57:54.003Z,22.70
2018-08-19T19:00:25.159Z,22.60
2018-08-19T19:02:58.712Z,22.60
2018-08-19T19:05:33.336Z,22.50
2018-08-19T19:08:08.250Z,22.40
2018-08-19T19:10:38.004Z,22.40
2018-08-19T19:13:07.471Z,22.30
2018-08-19T19:15:40.548Z,22.20
2018-08-19T19:18:12.457Z,22.20
2018-08-19T19:21:14.650Z,22.10
2018-08-19T19:23:44.800Z,22.10
2018-08-19T19:26:14.378Z,22.00
2018-08-19T19:28:43.752Z,21.90
2018-08-19T19:31:14.983Z,21.80
2018-08-19T19:33:44.340Z,21.80
2018-08-19T19:36:19.495Z,21.70
2018-08-19T19:39:03.944Z,21.70
2018-08-19T19:41:35.060Z,21.70
2018-08-19T19:44:19.590Z,21.60
2018-08-19T19:46:48.912Z,21.60
2018-08-19T19:49:18.148Z,21.50
2018-08-19T19:52:03.971Z,21.50
2018-08-19T19:54:34.242Z,21.40
2018-08-19T19:57:03.354Z,21.40
2018-08-19T19:59:33.848Z,21.40
2018-08-19T20:02:03.160Z,21.40
2018-08-19T20:04:35.051Z,21.30
2018-08-19T20:07:04.452Z,21.30
2018-08-19T20:09:35.652Z,21.30
2018-08-19T20:12:04.747Z,21.30
2018-08-19T20:14:38.041Z,21.30
2018-08-19T20:17:07.401Z,21.20
2018-08-19T20:19:36.566Z,21.20
2018-08-19T20:22:05.888Z,21.20
2018-08-19T20:24:35.505Z,21.10
2018-08-19T20:27:04.730Z,21.10
2018-08-19T20:29:33.879Z,21.10
2018-08-19T20:32:03.257Z,21.10
2018-08-19T20:34:32.601Z,21.00
2018-08-19T20:37:01.918Z,21.00
2018-08-19T20:39:31.113Z,20.90
2018-08-19T20:42:00.384Z,20.90
2018-08-19T20:44:29.520Z,20.80
2018-08-19T20:46:58.988Z,20.80
2018-08-19T20:49:28.511Z,20.80
2018-08-19T20:51:57.645Z,20.70
2018-08-19T20:54:26.989Z,20.70
2018-08-19T20:56:56.169Z,20.70
2018-08-19T20:59:34.568Z,20.70
2018-08-19T21:02:04.891Z,20.70
2018-08-19T21:04:34.001Z,20.60
2018-08-19T21:07:04.629Z,20.70
2018-08-19T21:09:35.296Z,20.60
2018-08-19T21:12:04.555Z,20.60
2018-08-19T21:14:33.980Z,20.60
2018-08-19T21:17:04.660Z,20.50
2018-08-19T21:19:34.128Z,20.50
2018-08-19T21:22:03.251Z,20.50
2018-08-19T21:27:01.726Z,20.50
2018-08-19T21:29:31.277Z,20.40
2018-08-19T21:32:00.270Z,20.30
2018-08-19T21:34:29.796Z,20.30
2018-08-19T21:37:06.832Z,20.20
2018-08-19T21:39:36.435Z,20.20
2018-08-19T21:42:05.677Z,20.10
2018-08-19T21:44:34.747Z,20.10
2018-08-19T21:47:05.305Z,20.00
2018-08-19T21:49:34.652Z,20.00
2018-08-19T21:52:03.753Z,20.00
2018-08-19T21:54:33.319Z,20.00
2018-08-19T21:57:03.217Z,20.00
2018-08-19T21:59:32.364Z,19.90
2018-08-19T22:15:00.870Z,20.00
2018-08-19T22:17:29.953Z,20.00
2018-08-19T22:19:58.939Z,20.20
2018-08-19T22:22:27.880Z,20.30
2018-08-19T22:24:57.206Z,20.30
2018-08-19T22:27:26.249Z,20.40
2018-08-19T22:29:55.660Z,20.40
2018-08-19T22:32:24.713Z,20.40
2018-08-19T22:34:53.915Z,20.50
2018-08-19T22:37:23.088Z,20.60
2018-08-19T22:39:52.227Z,20.60
2018-08-19T22:42:21.265Z,20.70
2018-08-19T22:44:50.622Z,20.70
2018-08-19T22:47:19.940Z,20.70
2018-08-19T22:49:49.439Z,20.70
2018-08-19T22:52:21.364Z,20.80
2018-08-19T22:54:53.643Z,20.80
2018-08-19T22:57:23.046Z,20.80
2018-08-19T22:59:52.783Z,20.80
2018-08-19T23:02:22.534Z,20.80
2018-08-19T23:04:52.200Z,20.90
2018-08-19T23:07:21.473Z,20.90
2018-08-19T23:09:50.666Z,20.90
2018-08-19T23:12:20.003Z,20.90
2018-08-19T23:15:00.384Z,20.90
2018-08-19T23:17:29.276Z,20.90
2018-08-19T23:19:58.314Z,20.90
2018-08-19T23:22:27.248Z,20.90
2018-08-19T23:24:56.480Z,21.00
2018-08-19T23:27:25.505Z,21.00
2018-08-19T23:29:54.434Z,21.00
2018-08-19T23:32:23.435Z,21.00
2018-08-19T23:34:52.354Z,21.00
2018-08-19T23:37:21.406Z,21.10
2018-08-19T23:39:50.649Z,21.10
2018-08-19T23:42:19.900Z,21.10
2018-08-19T23:44:49.243Z,21.10
2018-08-19T23:47:18.366Z,21.10
2018-08-19T23:49:47.511Z,21.10
2018-08-19T23:52:16.724Z,21.10
2018-08-19T23:54:46.326Z,21.10
2018-08-19T23:57:15.614Z,21.10
2018-08-19T23:59:46.463Z,21.10
